Terminal Aerodrome Forecast
Issued by NWS

Home | Current Version | Previous Version | Text Only | Print | Product List | Glossary On
Versions: 1 2 3 4 5 6 7 8 9 10 11 12
488
FTUS42 KGSP 191122
TAFGMU
TAF
KGMU 191122Z 1912/2012 30003KT 6SM BR FEW250
      TEMPO 1912/1914 3SM BR
     FM191500 33007KT P6SM FEW250
     FM200000 01004KT P6SM SKC=

USA.gov is the U.S. government's official web portal to all federal, state and local government web resources and services.